Time;durP1;ratioP1;P1;durP2;ratioP2;P2;SDS_P1;SDS_P2;PMS_P1;PMS_P2;Temp;Humidity;BMP_temperature;BMP_pressure;BME280_temperature;BME280_humidity;BME280_pressure;Samples;Min_cycle;Max_cycle;Signal;HPM_P1;HPM_P2
2023/10/06 00:00:33;;;;;;;11.37;9.90;;;11.40;99.90;;;;;;5023747;28;20205;-59
2023/10/06 00:03:00;;;;;;;13.70;9.80;;;11.40;99.90;;;;;;5037377;28;20202;-59
2023/10/06 00:05:31;;;;;;;10.03;9.17;;;11.30;99.90;;;;;;5052561;28;20227;-59
2023/10/06 00:07:58;;;;;;;12.40;10.20;;;11.20;99.90;;;;;;5052745;28;20684;-60
2023/10/06 00:10:27;;;;;;;11.80;10.60;;;11.20;99.90;;;;;;5024084;28;20228;-60
2023/10/06 00:12:58;;;;;;;9.63;8.63;;;11.30;99.90;;;;;;5031126;28;20205;-59
2023/10/06 00:15:35;;;;;;;11.27;10.03;;;11.30;99.90;;;;;;5032532;28;20222;-60
2023/10/06 00:18:07;;;;;;;9.57;8.60;;;11.30;99.90;;;;;;5030733;28;20215;-60
2023/10/06 00:20:48;;;;;;;10.03;9.07;;;11.20;99.90;;;;;;5033923;28;20197;-60
2023/10/06 00:23:20;;;;;;;11.57;10.40;;;11.20;99.90;;;;;;5032376;28;20206;-60
2023/10/06 00:25:50;;;;;;;9.40;8.53;;;11.20;99.90;;;;;;5032525;28;20604;-60
2023/10/06 00:28:21;;;;;;;9.90;8.90;;;11.30;99.90;;;;;;5032168;28;20223;-60
2023/10/06 00:30:55;;;;;;;10.43;9.43;;;11.30;99.90;;;;;;5032124;28;20214;-60
2023/10/06 00:33:23;;;;;;;9.43;8.50;;;11.30;99.90;;;;;;5031631;28;20612;-59
2023/10/06 00:35:50;;;;;;;10.93;9.77;;;11.20;99.90;;;;;;5031806;28;20656;-60
2023/10/06 00:38:17;;;;;;;9.10;8.27;;;11.20;99.90;;;;;;5025604;28;20202;-60
2023/10/06 00:40:52;;;;;;;9.07;8.27;;;11.10;99.90;;;;;;5031682;28;20742;-60
2023/10/06 00:43:36;;;;;;;11.47;10.30;;;11.10;99.90;;;;;;5031618;28;20702;-60
2023/10/06 00:46:06;;;;;;;10.67;8.80;;;11.10;99.90;;;;;;5031136;28;20222;-59
2023/10/06 00:48:36;;;;;;;11.73;10.53;;;11.00;99.90;;;;;;5027296;28;20267;-60
2023/10/06 00:51:06;;;;;;;13.67;10.70;;;11.00;99.90;;;;;;5030988;28;20201;-60
2023/10/06 00:53:34;;;;;;;9.97;8.93;;;11.00;99.90;;;;;;5023451;28;20202;-60
2023/10/06 00:56:08;;;;;;;10.13;9.07;;;11.00;99.90;;;;;;5031475;28;20850;-60
2023/10/06 00:58:42;;;;;;;9.97;9.00;;;10.90;99.90;;;;;;5031882;28;20693;-60
2023/10/06 01:01:12;;;;;;;9.97;9.00;;;10.90;99.90;;;;;;5032086;28;20198;-60
2023/10/06 01:03:41;;;;;;;11.27;10.17;;;10.90;99.90;;;;;;5037492;28;20202;-60
2023/10/06 01:06:14;;;;;;;9.87;8.93;;;10.90;99.90;;;;;;5031651;28;20595;-60
2023/10/06 01:08:45;;;;;;;11.93;9.87;;;10.80;99.90;;;;;;5031602;28;20203;-60
2023/10/06 01:11:15;;;;;;;11.83;10.03;;;10.80;99.90;;;;;;5031658;28;20209;-60
2023/10/06 01:13:55;;;;;;;11.27;9.10;;;10.80;99.90;;;;;;5031101;28;20223;-60
2023/10/06 01:16:30;;;;;;;11.57;9.97;;;10.80;99.90;;;;;;5022603;28;20230;-60
2023/10/06 01:19:06;;;;;;;10.50;9.13;;;10.80;99.90;;;;;;5031653;28;20301;-60
2023/10/06 01:21:38;;;;;;;10.03;9.13;;;10.80;99.90;;;;;;5031439;28;20200;-59
2023/10/06 01:24:12;;;;;;;11.03;9.93;;;10.80;99.90;;;;;;5031688;28;20209;-60
2023/10/06 01:26:41;;;;;;;10.93;9.77;;;10.70;99.90;;;;;;5030331;28;20265;-59
2023/10/06 01:29:11;;;;;;;9.97;8.93;;;10.70;99.90;;;;;;5030125;28;20292;-60
2023/10/06 01:31:40;;;;;;;11.43;10.30;;;10.80;99.90;;;;;;5030920;28;20201;-60
2023/10/06 01:34:10;;;;;;;10.13;9.13;;;10.80;99.90;;;;;;5029965;28;20263;-59
2023/10/06 01:36:37;;;;;;;10.70;9.67;;;10.80;99.90;;;;;;5048203;28;20259;-60
2023/10/06 01:39:05;;;;;;;10.23;9.20;;;10.80;99.90;;;;;;5027877;28;20614;-60
2023/10/06 01:41:35;;;;;;;8.97;8.20;;;10.80;99.90;;;;;;5019893;28;20229;-60
2023/10/06 01:44:10;;;;;;;10.53;9.53;;;10.80;99.90;;;;;;5030280;28;20291;-60
2023/10/06 01:46:38;;;;;;;9.20;8.30;;;10.80;99.90;;;;;;5022999;28;20225;-59
2023/10/06 01:49:07;;;;;;;9.23;8.37;;;10.80;99.90;;;;;;5035270;28;20673;-60
2023/10/06 01:51:35;;;;;;;11.57;9.27;;;10.80;99.90;;;;;;5035051;28;20613;-60
2023/10/06 01:54:05;;;;;;;8.77;7.97;;;10.80;99.90;;;;;;5035648;28;20205;-60
2023/10/06 01:56:34;;;;;;;11.50;8.60;;;10.80;99.90;;;;;;5015196;28;20313;-60
2023/10/06 01:59:04;;;;;;;8.93;8.10;;;10.80;99.90;;;;;;5020192;28;20213;-59
2023/10/06 02:01:31;;;;;;;7.73;7.07;;;10.70;99.90;;;;;;5033708;28;20199;-60
2023/10/06 02:03:58;;;;;;;8.47;7.67;;;10.70;99.90;;;;;;5034573;28;20296;-59
2023/10/06 02:06:26;;;;;;;9.23;8.47;;;10.60;99.90;;;;;;5035040;28;20228;-60
2023/10/06 02:08:54;;;;;;;8.23;7.53;;;10.60;99.90;;;;;;5034998;28;20204;-59
2023/10/06 02:11:30;;;;;;;7.97;7.03;;;10.50;99.90;;;;;;5032896;28;20228;-59
2023/10/06 02:13:59;;;;;;;8.57;7.77;;;10.40;99.90;;;;;;5035049;28;20675;-60
2023/10/06 02:16:27;;;;;;;8.03;7.23;;;10.30;99.90;;;;;;5033788;28;20302;-59
2023/10/06 02:18:55;;;;;;;9.10;8.30;;;10.30;99.90;;;;;;5034538;28;20201;-60
2023/10/06 02:21:24;;;;;;;9.43;8.00;;;10.20;99.90;;;;;;5034309;28;20683;-60
2023/10/06 02:23:52;;;;;;;8.40;7.60;;;10.20;99.90;;;;;;5034971;28;20208;-61
2023/10/06 02:26:19;;;;;;;10.00;8.30;;;10.10;99.90;;;;;;5034461;28;20656;-60
2023/10/06 02:28:49;;;;;;;8.47;7.53;;;10.10;99.90;;;;;;5034373;28;20209;-60
2023/10/06 02:31:21;;;;;;;8.37;7.67;;;10.10;99.90;;;;;;5030288;28;20735;-59
2023/10/06 02:33:51;;;;;;;9.27;8.43;;;10.10;99.90;;;;;;5034401;28;20197;-60
2023/10/06 02:36:22;;;;;;;8.97;8.23;;;10.10;99.90;;;;;;5034281;28;20280;-60
2023/10/06 02:38:49;;;;;;;9.23;8.43;;;10.10;99.90;;;;;;5034956;28;20208;-59
2023/10/06 02:41:19;;;;;;;9.33;8.43;;;10.10;99.90;;;;;;5034064;28;20208;-60
2023/10/06 02:43:50;;;;;;;8.67;7.97;;;10.10;99.90;;;;;;5035605;28;20677;-60
2023/10/06 02:46:23;;;;;;;10.70;8.73;;;10.10;99.90;;;;;;5037752;28;20224;-60
2023/10/06 02:48:50;;;;;;;7.90;7.17;;;10.00;99.90;;;;;;5046388;28;20568;-60
2023/10/06 02:51:28;;;;;;;8.63;7.83;;;10.00;99.90;;;;;;5058152;28;20258;-60
2023/10/06 02:54:09;;;;;;;9.33;8.43;;;10.00;99.90;;;;;;5066028;28;20212;-60
2023/10/06 02:56:37;;;;;;;9.93;8.93;;;10.00;99.90;;;;;;5038266;28;20236;-60
2023/10/06 02:59:20;;;;;;;8.07;7.40;;;10.00;99.90;;;;;;5045842;28;20201;-60
2023/10/06 03:01:52;;;;;;;8.83;8.03;;;10.00;99.90;;;;;;5045041;28;20231;-60
2023/10/06 03:04:21;;;;;;;10.40;9.40;;;10.00;99.90;;;;;;5034922;28;20210;-59
2023/10/06 03:06:53;;;;;;;8.60;7.80;;;10.00;99.90;;;;;;5032757;28;20287;-60
2023/10/06 03:09:21;;;;;;;9.40;8.40;;;10.00;99.90;;;;;;5027169;28;20295;-60
2023/10/06 03:11:49;;;;;;;9.53;7.90;;;10.00;99.90;;;;;;5026918;28;20193;-60
2023/10/06 03:14:23;;;;;;;9.77;7.67;;;10.00;99.90;;;;;;5033525;28;20201;-60
2023/10/06 03:16:52;;;;;;;9.10;8.30;;;10.10;99.90;;;;;;5039572;28;20231;-60
2023/10/06 03:19:25;;;;;;;9.27;8.20;;;10.00;99.90;;;;;;5039649;28;22249;-59
2023/10/06 03:21:56;;;;;;;7.77;7.10;;;9.90;99.90;;;;;;5032874;28;20209;-59
2023/10/06 03:24:31;;;;;;;8.27;7.10;;;9.90;99.90;;;;;;5033533;28;20643;-60
2023/10/06 03:26:59;;;;;;;7.70;7.00;;;9.80;99.90;;;;;;5033535;28;20298;-60
2023/10/06 03:29:43;;;;;;;8.00;7.30;;;9.90;99.90;;;;;;5033273;28;20246;-60
2023/10/06 03:32:27;;;;;;;8.53;7.77;;;9.80;99.90;;;;;;5031711;28;20201;-60
2023/10/06 03:34:59;;;;;;;8.13;7.43;;;9.80;99.90;;;;;;5037715;28;20236;-60
2023/10/06 03:37:44;;;;;;;8.03;7.23;;;9.80;99.90;;;;;;5032214;28;20204;-60
2023/10/06 03:40:21;;;;;;;7.77;7.03;;;9.80;99.90;;;;;;5037565;28;20200;-60
2023/10/06 03:42:49;;;;;;;7.00;6.57;;;9.70;99.90;;;;;;5032412;28;20207;-59
2023/10/06 03:45:26;;;;;;;6.73;6.13;;;9.60;99.90;;;;;;5031034;28;20663;-60
2023/10/06 03:48:08;;;;;;;7.17;6.67;;;9.60;99.90;;;;;;5026390;28;20193;-60
2023/10/06 03:50:40;;;;;;;7.83;6.90;;;9.60;99.90;;;;;;5032833;28;20228;-59
2023/10/06 03:53:08;;;;;;;8.10;7.40;;;9.60;99.90;;;;;;5031414;28;20202;-60
2023/10/06 03:55:39;;;;;;;11.13;7.93;;;9.50;99.90;;;;;;5083071;22;20329;-57
2023/10/06 03:58:07;;;;;;;8.67;7.57;;;9.50;99.90;;;;;;5048549;28;20293;-57
2023/10/06 04:00:40;;;;;;;7.13;6.53;;;9.50;99.90;;;;;;5052592;28;20275;-57
2023/10/06 04:03:13;;;;;;;7.77;7.07;;;9.50;99.90;;;;;;5052137;28;20690;-57
2023/10/06 04:05:44;;;;;;;6.50;5.90;;;9.50;99.90;;;;;;5052624;28;20247;-57
2023/10/06 04:08:15;;;;;;;7.73;6.80;;;9.40;99.90;;;;;;5041927;28;20260;-57
2023/10/06 04:10:42;;;;;;;9.27;7.57;;;9.40;99.90;;;;;;5040363;28;20310;-57
2023/10/06 04:13:10;;;;;;;10.57;6.50;;;9.40;99.90;;;;;;5051970;28;20729;-57
2023/10/06 04:15:38;;;;;;;7.70;6.97;;;9.40;99.90;;;;;;5049612;28;20256;-57
2023/10/06 04:18:10;;;;;;;6.40;5.80;;;9.40;99.90;;;;;;5024719;28;20207;-57
2023/10/06 04:20:42;;;;;;;6.90;6.30;;;9.30;99.90;;;;;;5036658;28;20205;-57
2023/10/06 04:23:11;;;;;;;6.80;6.30;;;9.30;99.90;;;;;;5031179;28;20210;-57
2023/10/06 04:25:42;;;;;;;7.00;6.37;;;9.30;99.90;;;;;;5037938;28;20677;-57
2023/10/06 04:28:13;;;;;;;6.60;5.97;;;9.30;99.90;;;;;;5051974;28;20755;-57
2023/10/06 04:30:44;;;;;;;6.13;5.63;;;9.30;99.90;;;;;;5052160;28;20224;-57
2023/10/06 04:33:14;;;;;;;5.23;4.93;;;9.30;99.90;;;;;;5051864;28;20699;-57
2023/10/06 04:35:47;;;;;;;6.13;5.63;;;9.40;99.90;;;;;;5041612;28;20292;-57
2023/10/06 04:38:15;;;;;;;5.83;5.43;;;9.40;99.90;;;;;;5051948;28;20202;-57
2023/10/06 04:40:46;;;;;;;5.60;5.27;;;9.30;99.90;;;;;;5043586;28;20202;-57
2023/10/06 04:43:13;;;;;;;5.33;4.90;;;9.20;99.90;;;;;;5042268;28;20215;-57
2023/10/06 04:45:41;;;;;;;5.80;5.40;;;9.20;99.90;;;;;;5051793;28;20321;-57
2023/10/06 04:48:09;;;;;;;6.80;6.10;;;9.20;99.90;;;;;;5020995;28;20209;-57
2023/10/06 04:50:38;;;;;;;8.50;7.70;;;9.10;99.90;;;;;;5027949;28;20246;-57
2023/10/06 04:53:06;;;;;;;11.43;9.03;;;9.20;99.90;;;;;;5028872;28;20212;-57
2023/10/06 04:55:37;;;;;;;10.70;9.63;;;9.20;99.90;;;;;;5029001;28;20241;-57
2023/10/06 04:58:05;;;;;;;14.40;11.80;;;9.20;99.90;;;;;;5023021;28;20676;-57
2023/10/06 05:00:33;;;;;;;10.90;9.80;;;9.10;99.90;;;;;;5031388;28;20204;-57
2023/10/06 05:03:04;;;;;;;13.00;10.77;;;9.10;99.90;;;;;;5027393;28;20211;-57
2023/10/06 05:05:33;;;;;;;9.60;8.60;;;9.10;99.90;;;;;;5031352;28;20226;-57
2023/10/06 05:08:02;;;;;;;10.17;9.17;;;9.10;99.90;;;;;;5031255;28;20232;-57
2023/10/06 05:10:31;;;;;;;10.30;9.23;;;9.10;99.90;;;;;;5029823;28;20622;-57
2023/10/06 05:12:59;;;;;;;14.27;12.87;;;9.10;99.90;;;;;;5024799;28;20907;-57
2023/10/06 05:15:26;;;;;;;16.13;13.55;;;9.10;99.90;;;;;;5028605;28;20469;-57
2023/10/06 05:17:55;;;;;;;12.10;10.43;;;9.10;99.90;;;;;;5031217;28;20285;-60
2023/10/06 05:20:24;;;;;;;8.50;7.80;;;9.20;99.90;;;;;;5019252;28;20201;-58
2023/10/06 05:22:52;;;;;;;7.70;7.00;;;9.20;99.90;;;;;;5034709;28;20228;-58
2023/10/06 05:25:20;;;;;;;7.17;6.40;;;9.10;99.90;;;;;;5035369;28;20819;-57
2023/10/06 05:27:48;;;;;;;6.77;6.20;;;9.10;99.90;;;;;;5035373;28;20200;-58
2023/10/06 05:30:17;;;;;;;6.47;5.87;;;9.00;99.90;;;;;;5025634;28;20213;-58
2023/10/06 05:32:44;;;;;;;5.57;5.27;;;9.00;99.90;;;;;;5034611;28;20664;-58
2023/10/06 05:35:13;;;;;;;6.43;5.83;;;9.00;99.90;;;;;;5034759;28;20597;-58
2023/10/06 05:37:42;;;;;;;6.77;6.03;;;8.90;99.90;;;;;;5023965;28;20213;-57
2023/10/06 05:40:15;;;;;;;5.70;5.30;;;8.90;99.90;;;;;;5034991;28;20215;-59
2023/10/06 05:42:48;;;;;;;5.47;5.07;;;8.90;99.90;;;;;;5034546;28;20202;-59
2023/10/06 05:45:18;;;;;;;7.53;6.93;;;9.00;99.90;;;;;;5034750;28;20841;-58
2023/10/06 05:47:46;;;;;;;7.47;6.87;;;9.00;99.90;;;;;;5031148;28;20288;-59
2023/10/06 05:50:18;;;;;;;7.23;6.63;;;9.00;99.90;;;;;;5034847;28;20648;-59
2023/10/06 05:52:51;;;;;;;6.93;6.37;;;9.10;99.90;;;;;;5033731;28;20209;-58
2023/10/06 05:55:19;;;;;;;6.97;6.17;;;9.10;99.90;;;;;;5034411;28;20242;-59
2023/10/06 05:57:52;;;;;;;7.80;6.03;;;9.20;99.90;;;;;;5034766;28;20204;-59
2023/10/06 06:00:24;;;;;;;6.60;5.97;;;9.20;99.90;;;;;;5034953;28;20203;-59
2023/10/06 06:02:53;;;;;;;6.87;6.37;;;9.30;99.90;;;;;;5031607;28;20693;-58
2023/10/06 06:05:20;;;;;;;8.00;7.10;;;9.30;99.90;;;;;;5032064;28;20224;-59
2023/10/06 06:07:47;;;;;;;7.87;6.93;;;9.40;99.90;;;;;;5029546;28;20263;-58
2023/10/06 06:10:15;;;;;;;8.40;7.57;;;9.50;99.90;;;;;;5018084;28;20205;-59
2023/10/06 06:12:42;;;;;;;8.03;7.43;;;9.60;99.90;;;;;;5019334;28;20599;-59
2023/10/06 06:15:11;;;;;;;11.73;6.83;;;9.70;99.90;;;;;;5027165;28;20223;-60
2023/10/06 06:17:40;;;;;;;6.07;5.63;;;9.80;99.90;;;;;;5016191;28;20229;-60
2023/10/06 06:20:14;;;;;;;6.50;6.03;;;9.90;99.90;;;;;;5017457;28;20232;-60
2023/10/06 06:22:47;;;;;;;6.53;5.80;;;9.90;99.90;;;;;;5016926;28;20667;-57
2023/10/06 06:25:17;;;;;;;5.50;5.20;;;10.00;99.90;;;;;;5014098;28;20256;-59
2023/10/06 06:27:45;;;;;;;5.57;5.13;;;10.10;99.90;;;;;;5017822;28;20194;-59
2023/10/06 06:30:18;;;;;;;5.27;4.87;;;10.10;99.90;;;;;;5018934;28;20205;-57
2023/10/06 06:32:48;;;;;;;8.07;5.40;;;10.20;99.90;;;;;;5013745;28;20224;-58
2023/10/06 06:35:16;;;;;;;5.90;4.83;;;10.30;99.90;;;;;;5015510;28;20734;-58
2023/10/06 06:37:42;;;;;;;4.80;4.37;;;10.40;99.90;;;;;;5016438;28;20203;-57
2023/10/06 06:40:13;;;;;;;5.80;5.20;;;10.60;99.90;;;;;;5015433;28;20202;-57
2023/10/06 06:42:40;;;;;;;10.90;6.80;;;10.80;99.90;;;;;;5020948;28;20199;-57
2023/10/06 06:45:08;;;;;;;7.17;6.47;;;10.80;99.90;;;;;;5033687;28;20765;-57
2023/10/06 06:47:36;;;;;;;8.50;6.47;;;10.90;99.90;;;;;;5039425;28;20198;-60
2023/10/06 06:50:04;;;;;;;8.17;7.17;;;10.90;99.90;;;;;;5043228;28;20201;-59
2023/10/06 06:52:33;;;;;;;6.93;6.37;;;10.90;99.90;;;;;;5031070;28;20260;-60
2023/10/06 06:54:59;;;;;;;6.63;5.97;;;11.10;99.90;;;;;;5022864;28;20283;-56
2023/10/06 06:57:26;;;;;;;6.43;5.60;;;11.10;99.90;;;;;;5035112;28;20202;-57
2023/10/06 06:59:53;;;;;;;6.37;5.83;;;11.10;99.90;;;;;;5035308;28;20204;-56
2023/10/06 07:02:21;;;;;;;7.63;5.87;;;11.20;99.90;;;;;;5031679;28;20210;-58
2023/10/06 07:04:49;;;;;;;6.63;6.07;;;11.20;99.90;;;;;;5026413;28;20745;-58
2023/10/06 07:07:16;;;;;;;6.60;6.10;;;11.30;99.90;;;;;;5031436;28;20205;-58
2023/10/06 07:09:44;;;;;;;9.07;8.13;;;11.30;99.90;;;;;;5028915;28;20288;-61
2023/10/06 07:12:11;;;;;;;5.27;4.87;;;11.60;99.90;;;;;;5030216;28;20880;-61
2023/10/06 07:14:37;;;;;;;10.77;6.10;;;11.60;99.90;;;;;;5033043;28;20209;-61
2023/10/06 07:17:04;;;;;;;7.00;5.63;;;11.60;99.90;;;;;;5033179;28;20276;-61
2023/10/06 07:19:31;;;;;;;5.77;5.23;;;12.00;99.90;;;;;;5037556;28;20198;-60
2023/10/06 07:22:00;;;;;;;6.37;5.80;;;11.80;99.90;;;;;;5032873;28;20619;-61
2023/10/06 07:24:28;;;;;;;7.27;5.37;;;11.90;99.90;;;;;;5029730;28;20289;-61
2023/10/06 07:26:55;;;;;;;7.67;5.63;;;12.00;99.90;;;;;;5032916;28;20300;-56
2023/10/06 07:29:21;;;;;;;5.60;5.10;;;12.10;99.90;;;;;;5030325;28;20244;-58
2023/10/06 07:31:49;;;;;;;5.70;5.20;;;12.20;99.90;;;;;;5031854;28;20262;-60
2023/10/06 07:34:16;;;;;;;4.77;4.47;;;12.30;99.90;;;;;;5021987;28;20206;-60
2023/10/06 07:36:43;;;;;;;6.27;5.10;;;12.40;99.90;;;;;;5045844;28;20224;-60
2023/10/06 07:39:20;;;;;;;8.30;5.30;;;12.50;99.90;;;;;;5037896;28;20209;-61
2023/10/06 07:41:47;;;;;;;5.83;5.27;;;12.70;99.90;;;;;;5020191;28;20630;-60
2023/10/06 07:44:15;;;;;;;5.33;5.00;;;12.90;99.90;;;;;;5034017;28;20256;-60
2023/10/06 07:46:42;;;;;;;6.00;5.33;;;13.10;99.90;;;;;;5029677;28;20772;-60
2023/10/06 07:49:09;;;;;;;8.37;4.93;;;13.20;99.90;;;;;;5032671;28;20241;-60
2023/10/06 07:51:38;;;;;;;5.80;4.53;;;13.30;99.90;;;;;;5031206;28;20201;-61
2023/10/06 07:54:05;;;;;;;4.53;4.00;;;13.40;99.90;;;;;;5032564;28;20421;-60
2023/10/06 07:56:34;;;;;;;5.83;4.27;;;13.50;99.90;;;;;;5029593;28;20225;-57
2023/10/06 07:59:01;;;;;;;5.37;4.87;;;13.60;99.90;;;;;;5028928;28;20210;-61
2023/10/06 08:01:28;;;;;;;6.40;5.80;;;13.70;99.90;;;;;;5031731;28;20264;-62
2023/10/06 08:03:55;;;;;;;6.63;4.90;;;13.80;99.90;;;;;;5029620;28;20199;-62
2023/10/06 08:06:24;;;;;;;6.40;5.83;;;13.90;99.90;;;;;;5028929;28;20222;-62
2023/10/06 08:08:51;;;;;;;5.00;4.60;;;14.00;99.90;;;;;;5023758;28;20225;-57
2023/10/06 08:11:18;;;;;;;9.87;4.73;;;14.00;99.90;;;;;;5019985;28;20689;-61
2023/10/06 08:13:46;;;;;;;4.03;3.73;;;14.00;99.90;;;;;;5024985;28;20256;-60
2023/10/06 08:16:13;;;;;;;5.50;5.03;;;14.10;99.90;;;;;;5029349;28;20226;-60
2023/10/06 08:18:39;;;;;;;7.13;4.50;;;14.20;99.90;;;;;;5035889;28;20194;-61
2023/10/06 08:21:06;;;;;;;6.10;3.93;;;14.30;99.90;;;;;;5050374;28;20294;-62
2023/10/06 08:23:35;;;;;;;4.97;4.43;;;14.50;99.90;;;;;;5050748;28;20279;-62
2023/10/06 08:26:07;;;;;;;5.27;4.60;;;14.60;99.90;;;;;;5052050;28;20314;-62
2023/10/06 08:28:34;;;;;;;3.77;3.57;;;14.80;99.90;;;;;;5051787;28;20231;-61
2023/10/06 08:31:03;;;;;;;5.07;4.57;;;14.90;99.90;;;;;;5035013;28;20220;-62
2023/10/06 08:33:30;;;;;;;5.10;4.60;;;15.00;99.90;;;;;;5051420;28;20251;-62
2023/10/06 08:35:58;;;;;;;5.10;4.60;;;15.00;99.90;;;;;;5051659;28;20268;-59
2023/10/06 08:38:25;;;;;;;7.50;4.83;;;15.10;99.90;;;;;;5051557;28;20634;-59
2023/10/06 08:40:57;;;;;;;6.50;5.97;;;15.30;99.90;;;;;;5051322;28;20248;-57
2023/10/06 08:43:27;;;;;;;8.93;6.67;;;15.90;99.90;;;;;;5051352;28;20313;-58
2023/10/06 08:45:55;;;;;;;9.47;7.30;;;17.00;99.90;;;;;;5045649;28;20302;-57
2023/10/06 08:48:25;;;;;;;7.63;6.83;;;18.20;99.90;;;;;;5046975;28;20289;-57
2023/10/06 08:50:56;;;;;;;7.43;4.57;;;19.30;99.90;;;;;;5033481;28;20682;-57
2023/10/06 08:53:26;;;;;;;7.63;4.00;;;20.40;99.90;;;;;;5019951;28;20281;-56
2023/10/06 08:55:53;;;;;;;4.00;3.70;;;21.30;99.90;;;;;;5020769;28;20227;-57
2023/10/06 08:58:21;;;;;;;6.50;3.77;;;21.90;99.90;;;;;;5021635;28;20207;-58
2023/10/06 09:00:48;;;;;;;4.97;4.57;;;22.40;99.90;;;;;;5020233;28;20587;-58
2023/10/06 09:03:15;;;;;;;6.83;4.90;;;22.50;99.90;;;;;;5025994;28;20632;-57
2023/10/06 09:05:45;;;;;;;6.53;4.63;;;22.50;99.90;;;;;;5026925;28;20272;-58
2023/10/06 09:08:14;;;;;;;10.70;9.70;;;22.50;99.90;;;;;;5029777;28;20260;-57
2023/10/06 09:10:43;;;;;;;10.23;9.33;;;23.10;99.90;;;;;;5017820;28;20325;-56
2023/10/06 09:13:12;;;;;;;9.37;8.47;;;23.80;99.90;;;;;;5028774;28;20216;-56
2023/10/06 09:15:44;;;;;;;8.17;7.47;;;23.90;99.90;;;;;;5029341;28;20249;-57
2023/10/06 09:18:19;;;;;;;9.00;8.20;;;23.80;99.90;;;;;;5028065;28;20290;-56
2023/10/06 09:20:51;;;;;;;8.50;7.70;;;23.60;99.90;;;;;;5021425;28;20654;-57
2023/10/06 09:23:32;;;;;;;7.70;7.00;;;23.90;99.90;;;;;;5030599;28;20229;-57
2023/10/06 09:26:00;;;;;;;9.67;8.40;;;23.60;99.90;;;;;;5048781;28;20224;-57
2023/10/06 09:28:27;;;;;;;10.20;7.73;;;23.90;99.90;;;;;;5037376;28;20256;-57
2023/10/06 09:31:00;;;;;;;8.87;8.07;;;23.50;99.90;;;;;;5046935;28;20204;-57
2023/10/06 09:33:28;;;;;;;8.17;7.43;;;23.90;99.90;;;;;;5036391;28;20715;-57
2023/10/06 09:36:11;;;;;;;9.57;8.67;;;24.20;99.90;;;;;;5041629;28;20275;-57
2023/10/06 09:38:39;;;;;;;11.00;9.90;;;24.20;99.90;;;;;;5049248;28;20664;-57
2023/10/06 09:41:09;;;;;;;14.20;12.50;;;24.60;99.90;;;;;;5051150;28;20751;-56
2023/10/06 09:43:38;;;;;;;17.30;12.27;;;24.50;99.90;;;;;;5035412;28;20252;-56
2023/10/06 09:46:07;;;;;;;12.73;11.43;;;23.30;99.90;;;;;;5032538;28;20246;-56
2023/10/06 09:48:37;;;;;;;12.13;10.90;;;23.60;99.90;;;;;;5036580;28;20281;-56
2023/10/06 09:51:08;;;;;;;15.07;9.83;;;23.60;99.90;;;;;;5040783;28;20252;-56
2023/10/06 09:53:38;;;;;;;12.20;10.90;;;23.40;99.90;;;;;;5026943;28;20652;-56
2023/10/06 09:56:07;;;;;;;13.10;11.47;;;22.90;99.90;;;;;;5063751;22;20326;-60
2023/10/06 09:58:35;;;;;;;12.07;10.70;;;22.90;99.90;;;;;;5049911;28;20233;-60
2023/10/06 10:01:03;;;;;;;14.63;10.43;;;22.60;99.90;;;;;;5048379;28;20233;-60
2023/10/06 10:03:33;;;;;;;11.67;10.33;;;22.00;99.90;;;;;;5048863;28;20351;-60
2023/10/06 10:06:04;;;;;;;11.20;10.03;;;22.20;99.90;;;;;;5044661;28;20696;-60
2023/10/06 10:08:33;;;;;;;10.90;9.90;;;21.80;99.90;;;;;;5028545;28;20206;-60
2023/10/06 10:11:05;;;;;;;10.13;9.20;;;21.70;99.90;;;;;;5022262;28;20236;-60
2023/10/06 10:13:59;;;;;;;11.53;10.43;;;21.90;99.90;;;;;;5025147;28;20662;-60
2023/10/06 10:16:44;;;;;;;10.57;9.47;;;22.00;99.90;;;;;;5035894;28;20227;-60
2023/10/06 10:19:15;;;;;;;12.70;10.67;;;22.40;99.90;;;;;;5027715;28;20207;-60
2023/10/06 10:21:43;;;;;;;11.43;10.23;;;22.60;99.90;;;;;;5033730;28;20198;-60
2023/10/06 10:24:13;;;;;;;13.93;11.87;;;22.30;99.90;;;;;;5028456;28;20277;-60
2023/10/06 10:26:41;;;;;;;11.57;10.37;;;22.30;99.90;;;;;;5032059;28;20222;-60
2023/10/06 10:29:28;;;;;;;11.77;10.30;;;22.40;99.90;;;;;;5030510;28;20280;-60
2023/10/06 10:32:01;;;;;;;12.47;11.07;;;22.70;99.90;;;;;;5040393;28;20674;-60
2023/10/06 10:34:33;;;;;;;13.00;10.80;;;22.70;99.90;;;;;;5033966;28;20208;-60
2023/10/06 10:37:15;;;;;;;11.90;10.60;;;22.20;99.90;;;;;;5027147;28;20228;-60
2023/10/06 10:39:48;;;;;;;10.97;9.87;;;21.80;99.90;;;;;;5015511;28;20198;-60
2023/10/06 10:42:17;;;;;;;18.88;11.13;;;21.30;99.90;;;;;;5038524;28;20853;-60
2023/10/06 10:44:45;;;;;;;14.77;13.48;;;20.80;99.90;;;;;;5032252;28;20879;-60
2023/10/06 10:47:12;;;;;;;13.87;12.30;;;20.60;99.90;;;;;;5030730;28;20616;-65
2023/10/06 10:49:40;;;;;;;14.47;12.57;;;20.60;99.90;;;;;;5036341;28;20246;-64
2023/10/06 10:52:09;;;;;;;16.33;13.13;;;20.70;99.90;;;;;;5038356;28;20202;-64
2023/10/06 10:54:39;;;;;;;16.03;13.07;;;20.50;99.90;;;;;;5036641;28;22117;-64
2023/10/06 10:57:09;;;;;;;16.80;14.37;;;20.30;99.90;;;;;;5019897;28;20272;-64
2023/10/06 11:00:12;;;;;;;13.83;12.53;;;19.90;99.90;;;;;;5040325;28;20209;-64
2023/10/06 11:02:41;;;;;;;15.57;13.97;;;19.70;99.90;;;;;;5035272;28;20256;-64
2023/10/06 11:05:09;;;;;;;17.27;14.63;;;19.60;99.90;;;;;;5039717;28;20583;-64
2023/10/06 11:07:37;;;;;;;16.30;13.70;;;19.60;99.90;;;;;;5026706;28;20219;-64
2023/10/06 11:10:04;;;;;;;14.50;13.10;;;19.40;99.90;;;;;;5033487;28;20552;-64
2023/10/06 11:12:35;;;;;;;15.17;13.53;;;19.40;99.90;;;;;;5020845;28;20195;-64
2023/10/06 11:15:13;;;;;;;16.40;14.40;;;19.50;99.90;;;;;;5030865;28;20278;-64
2023/10/06 11:17:41;;;;;;;16.27;14.50;;;19.40;99.90;;;;;;5035509;28;20222;-63
2023/10/06 11:20:15;;;;;;;20.63;15.97;;;19.30;99.90;;;;;;5037288;28;20309;-59
2023/10/06 11:22:59;;;;;;;20.97;16.40;;;19.30;99.90;;;;;;5032438;28;20219;-59
2023/10/06 11:25:28;;;;;;;15.50;13.93;;;19.30;99.90;;;;;;5032720;28;20203;-59
2023/10/06 11:28:03;;;;;;;16.17;14.23;;;19.30;99.90;;;;;;5028128;28;20234;-59
2023/10/06 11:30:32;;;;;;;16.10;14.37;;;19.40;99.90;;;;;;5024657;28;20214;-59
2023/10/06 11:33:02;;;;;;;18.57;15.70;;;19.40;99.90;;;;;;5031180;28;20341;-62
2023/10/06 11:35:30;;;;;;;24.53;16.63;;;19.40;99.90;;;;;;5022119;28;20892;-62
2023/10/06 11:37:58;;;;;;;19.53;16.33;;;19.40;99.90;;;;;;5019719;28;20657;-61
2023/10/06 11:40:25;;;;;;;22.03;15.80;;;19.10;99.90;;;;;;5024069;28;20203;-64
2023/10/06 11:42:53;;;;;;;21.00;17.30;;;19.10;99.90;;;;;;5027868;28;20308;-63
2023/10/06 11:45:27;;;;;;;19.17;15.57;;;19.10;99.90;;;;;;5028015;28;20202;-62
2023/10/06 11:47:55;;;;;;;18.50;16.20;;;19.10;99.90;;;;;;5030903;28;20226;-63
2023/10/06 11:50:24;;;;;;;20.53;16.67;;;19.00;99.90;;;;;;5030679;28;20654;-64
2023/10/06 11:52:52;;;;;;;23.67;17.73;;;18.90;99.90;;;;;;5021363;28;20333;-63
2023/10/06 11:55:34;;;;;;;24.20;16.60;;;18.80;99.90;;;;;;5030558;28;20289;-63
2023/10/06 11:58:04;;;;;;;21.13;16.27;;;18.70;99.90;;;;;;5024367;28;20246;-64
2023/10/06 12:00:37;;;;;;;19.60;15.90;;;18.80;99.90;;;;;;5026367;28;20241;-65
2023/10/06 12:03:06;;;;;;;21.40;17.57;;;18.80;99.90;;;;;;5029387;28;20222;-64
2023/10/06 12:05:33;;;;;;;18.83;16.30;;;18.80;99.90;;;;;;5022537;28;20202;-63
2023/10/06 12:08:05;;;;;;;23.77;17.83;;;18.60;99.90;;;;;;5029803;28;20264;-65
2023/10/06 12:10:33;;;;;;;20.70;16.83;;;18.70;99.90;;;;;;5029365;28;20210;-62
2023/10/06 12:13:04;;;;;;;19.77;16.20;;;18.70;99.90;;;;;;5027969;28;20221;-63
2023/10/06 12:15:32;;;;;;;21.47;17.00;;;18.70;99.90;;;;;;5020242;28;20586;-64
2023/10/06 12:18:01;;;;;;;21.53;16.40;;;18.80;99.90;;;;;;5028290;28;20206;-63
2023/10/06 12:20:28;;;;;;;18.57;16.43;;;18.80;99.90;;;;;;5037733;28;20304;-64
2023/10/06 12:22:55;;;;;;;26.23;16.50;;;18.80;99.90;;;;;;5037807;28;20211;-63
2023/10/06 12:25:24;;;;;;;19.30;15.17;;;18.80;99.90;;;;;;5033858;28;20202;-63
2023/10/06 12:27:51;;;;;;;21.30;16.17;;;18.80;99.90;;;;;;5032516;28;20318;-61
2023/10/06 12:30:19;;;;;;;21.50;16.20;;;18.80;99.90;;;;;;5029302;28;20210;-61
2023/10/06 12:32:47;;;;;;;16.23;14.57;;;18.80;99.90;;;;;;5022210;28;20190;-63
2023/10/06 12:35:18;;;;;;;21.17;17.33;;;18.80;99.90;;;;;;5029502;28;20207;-63
2023/10/06 12:37:46;;;;;;;19.57;16.03;;;18.80;99.90;;;;;;5033128;28;20223;-68
2023/10/06 12:40:14;;;;;;;15.03;13.43;;;18.80;99.90;;;;;;5031078;28;20283;-66
2023/10/06 12:42:42;;;;;;;18.90;15.70;;;18.90;99.90;;;;;;5031036;28;20663;-68
2023/10/06 12:45:13;;;;;;;20.27;15.77;;;19.00;99.90;;;;;;5034785;28;20275;-68
2023/10/06 12:47:40;;;;;;;18.07;14.73;;;19.00;99.90;;;;;;5026296;28;20214;-68
2023/10/06 12:50:08;;;;;;;23.93;16.67;;;19.00;99.90;;;;;;5022983;28;20206;-66
2023/10/06 12:52:37;;;;;;;21.27;16.67;;;19.10;99.90;;;;;;5034090;28;20199;-63
2023/10/06 12:55:09;;;;;;;21.67;16.50;;;18.90;99.90;;;;;;5023865;28;20294;-63
2023/10/06 12:57:37;;;;;;;22.10;16.87;;;18.90;99.90;;;;;;5019716;28;20234;-64